sensor_id;sensor_type;location;lat;lon;timestamp;pressure;altitude;pressure_sealevel;temperature;humidity
55610;BME280;41486;52.502;13.486;2024-02-21T00:00:11;101514.84;;;7.80;100.00
55610;BME280;41486;52.502;13.486;2024-02-21T00:02:40;101506.16;;;7.79;100.00
55610;BME280;41486;52.502;13.486;2024-02-21T00:05:08;101507.06;;;7.78;100.00
55610;BME280;41486;52.502;13.486;2024-02-21T00:07:36;101496.59;;;7.78;100.00
55610;BME280;41486;52.502;13.486;2024-02-21T00:10:05;101500.69;;;7.84;100.00
55610;BME280;41486;52.502;13.486;2024-02-21T00:12:35;101495.03;;;7.74;100.00
55610;BME280;41486;52.502;13.486;2024-02-21T00:15:03;101498.16;;;7.65;100.00
55610;BME280;41486;52.502;13.486;2024-02-21T00:17:33;101499.91;;;7.82;100.00
55610;BME280;41486;52.502;13.486;2024-02-21T00:20:01;101488.56;;;7.81;100.00
55610;BME280;41486;52.502;13.486;2024-02-21T00:22:29;101485.78;;;7.84;100.00
55610;BME280;41486;52.502;13.486;2024-02-21T00:24:58;101487.88;;;7.78;100.00
55610;BME280;41486;52.502;13.486;2024-02-21T00:27:26;101488.19;;;7.71;100.00
55610;BME280;41486;52.502;13.486;2024-02-21T00:29:59;101490.75;;;7.73;100.00
55610;BME280;41486;52.502;13.486;2024-02-21T00:32:27;101487.66;;;7.65;100.00
55610;BME280;41486;52.502;13.486;2024-02-21T00:34:57;101483.25;;;7.65;100.00
55610;BME280;41486;52.502;13.486;2024-02-21T00:37:25;101482.25;;;7.68;100.00
55610;BME280;41486;52.502;13.486;2024-02-21T00:39:54;101477.88;;;7.68;100.00
55610;BME280;41486;52.502;13.486;2024-02-21T00:42:22;101481.47;;;7.66;100.00
55610;BME280;41486;52.502;13.486;2024-02-21T00:44:50;101476.47;;;7.61;100.00
55610;BME280;41486;52.502;13.486;2024-02-21T00:47:17;101476.25;;;7.66;100.00
55610;BME280;41486;52.502;13.486;2024-02-21T00:49:46;101470.53;;;7.57;100.00
55610;BME280;41486;52.502;13.486;2024-02-21T00:52:15;101473.09;;;7.59;100.00
55610;BME280;41486;52.502;13.486;2024-02-21T00:54:43;101470.94;;;7.67;100.00
55610;BME280;41486;52.502;13.486;2024-02-21T00:57:20;101463.22;;;7.64;100.00
55610;BME280;41486;52.502;13.486;2024-02-21T00:59:48;101463.22;;;7.64;100.00
55610;BME280;41486;52.502;13.486;2024-02-21T01:02:16;101457.28;;;7.61;100.00
55610;BME280;41486;52.502;13.486;2024-02-21T01:04:44;101455.91;;;7.71;100.00
55610;BME280;41486;52.502;13.486;2024-02-21T01:07:17;101449.97;;;7.67;100.00
55610;BME280;41486;52.502;13.486;2024-02-21T01:09:45;101447.28;;;7.69;100.00
55610;BME280;41486;52.502;13.486;2024-02-21T01:12:13;101453.44;;;7.68;100.00
55610;BME280;41486;52.502;13.486;2024-02-21T01:14:40;101446.50;;;7.67;100.00
55610;BME280;41486;52.502;13.486;2024-02-21T01:17:11;101445.81;;;7.63;100.00
55610;BME280;41486;52.502;13.486;2024-02-21T01:19:39;101444.34;;;7.75;100.00
55610;BME280;41486;52.502;13.486;2024-02-21T01:22:09;101450.50;;;7.74;100.00
55610;BME280;41486;52.502;13.486;2024-02-21T01:24:38;101442.19;;;7.66;100.00
55610;BME280;41486;52.502;13.486;2024-02-21T01:27:06;101443.41;;;7.76;100.00
55610;BME280;41486;52.502;13.486;2024-02-21T01:29:34;101442.56;;;7.76;100.00
55610;BME280;41486;52.502;13.486;2024-02-21T01:32:05;101436.47;;;7.75;100.00
55610;BME280;41486;52.502;13.486;2024-02-21T01:34:32;101431.91;;;7.79;100.00
55610;BME280;41486;52.502;13.486;2024-02-21T01:37:01;101431.00;;;7.80;100.00
55610;BME280;41486;52.502;13.486;2024-02-21T01:39:31;101428.84;;;7.70;100.00
55610;BME280;41486;52.502;13.486;2024-02-21T01:42:00;101428.91;;;7.86;100.00
55610;BME280;41486;52.502;13.486;2024-02-21T01:44:28;101431.78;;;7.82;100.00
55610;BME280;41486;52.502;13.486;2024-02-21T01:46:56;101424.38;;;7.72;100.00
55610;BME280;41486;52.502;13.486;2024-02-21T01:49:24;101426.31;;;7.69;100.00
55610;BME280;41486;52.502;13.486;2024-02-21T01:51:53;101431.91;;;7.79;100.00
55610;BME280;41486;52.502;13.486;2024-02-21T01:54:22;101423.00;;;7.83;100.00
55610;BME280;41486;52.502;13.486;2024-02-21T01:56:50;101421.44;;;7.79;100.00
55610;BME280;41486;52.502;13.486;2024-02-21T01:59:21;101422.53;;;7.74;100.00
55610;BME280;41486;52.502;13.486;2024-02-21T02:01:50;101420.59;;;7.78;100.00
55610;BME280;41486;52.502;13.486;2024-02-21T02:04:20;101412.41;;;7.84;100.00
55610;BME280;41486;52.502;13.486;2024-02-21T02:06:48;101407.59;;;7.77;100.00
55610;BME280;41486;52.502;13.486;2024-02-21T02:09:16;101407.75;;;7.73;100.00
55610;BME280;41486;52.502;13.486;2024-02-21T02:11:45;101399.78;;;7.75;100.00
55610;BME280;41486;52.502;13.486;2024-02-21T02:14:13;101395.09;;;7.82;100.00
55610;BME280;41486;52.502;13.486;2024-02-21T02:16:46;101397.13;;;7.77;100.00
55610;BME280;41486;52.502;13.486;2024-02-21T02:19:14;101390.19;;;7.76;100.00
55610;BME280;41486;52.502;13.486;2024-02-21T02:21:46;101397.41;;;7.70;100.00
55610;BME280;41486;52.502;13.486;2024-02-21T02:24:51;101386.63;;;7.77;100.00
55610;BME280;41486;52.502;13.486;2024-02-21T02:27:21;101379.81;;;7.56;100.00
55610;BME280;41486;52.502;13.486;2024-02-21T02:29:53;101375.56;;;7.54;100.00
55610;BME280;41486;52.502;13.486;2024-02-21T02:32:21;101377.66;;;7.47;100.00
55610;BME280;41486;52.502;13.486;2024-02-21T02:34:49;101383.75;;;7.48;100.00
55610;BME280;41486;52.502;13.486;2024-02-21T02:37:17;101371.19;;;7.54;100.00
55610;BME280;41486;52.502;13.486;2024-02-21T02:39:45;101369.88;;;7.46;100.00
55610;BME280;41486;52.502;13.486;2024-02-21T02:42:15;101375.28;;;7.42;100.00
55610;BME280;41486;52.502;13.486;2024-02-21T02:44:43;101372.25;;;7.50;100.00
55610;BME280;41486;52.502;13.486;2024-02-21T02:47:11;101372.47;;;7.46;100.00
55610;BME280;41486;52.502;13.486;2024-02-21T02:49:39;101367.34;;;7.44;100.00
55610;BME280;41486;52.502;13.486;2024-02-21T02:52:08;101371.88;;;7.40;100.00
55610;BME280;41486;52.502;13.486;2024-02-21T02:54:35;101365.13;;;7.36;100.00
55610;BME280;41486;52.502;13.486;2024-02-21T02:57:03;101355.44;;;7.21;100.00
55610;BME280;41486;52.502;13.486;2024-02-21T02:59:34;101359.22;;;7.33;100.00
55610;BME280;41486;52.502;13.486;2024-02-21T03:02:01;101352.97;;;7.18;100.00
55610;BME280;41486;52.502;13.486;2024-02-21T03:04:30;101350.22;;;7.21;100.00
55610;BME280;41486;52.502;13.486;2024-02-21T03:06:58;101348.50;;;7.20;100.00
55610;BME280;41486;52.502;13.486;2024-02-21T03:09:26;101344.25;;;7.17;100.00
55610;BME280;41486;52.502;13.486;2024-02-21T03:11:55;101342.50;;;7.18;100.00
55610;BME280;41486;52.502;13.486;2024-02-21T03:14:29;101350.25;;;7.19;100.00
55610;BME280;41486;52.502;13.486;2024-02-21T03:16:58;101334.66;;;7.18;100.00
55610;BME280;41486;52.502;13.486;2024-02-21T03:19:27;101338.03;;;7.20;100.00
55610;BME280;41486;52.502;13.486;2024-02-21T03:21:55;101330.78;;;7.07;100.00
55610;BME280;41486;52.502;13.486;2024-02-21T03:24:23;101323.81;;;7.08;100.00
55610;BME280;41486;52.502;13.486;2024-02-21T03:26:51;101321.34;;;7.05;100.00
55610;BME280;41486;52.502;13.486;2024-02-21T03:29:19;101324.25;;;7.16;100.00
55610;BME280;41486;52.502;13.486;2024-02-21T03:31:46;101327.94;;;7.12;100.00
55610;BME280;41486;52.502;13.486;2024-02-21T03:34:16;101326.44;;;7.08;100.00
55610;BME280;41486;52.502;13.486;2024-02-21T03:36:44;101326.25;;;7.11;100.00
55610;BME280;41486;52.502;13.486;2024-02-21T03:39:12;101331.44;;;6.95;100.00
55610;BME280;41486;52.502;13.486;2024-02-21T03:41:40;101328.41;;;7.03;100.00
55610;BME280;41486;52.502;13.486;2024-02-21T03:44:08;101330.34;;;6.99;100.00
55610;BME280;41486;52.502;13.486;2024-02-21T03:46:36;101322.19;;;6.88;100.00
55610;BME280;41486;52.502;13.486;2024-02-21T03:49:03;101324.03;;;6.86;100.00
55610;BME280;41486;52.502;13.486;2024-02-21T03:51:33;101321.72;;;6.79;100.00
55610;BME280;41486;52.502;13.486;2024-02-21T03:54:01;101316.31;;;6.83;100.00
55610;BME280;41486;52.502;13.486;2024-02-21T03:56:32;101307.88;;;6.77;100.00
55610;BME280;41486;52.502;13.486;2024-02-21T03:58:59;101305.81;;;6.84;100.00
55610;BME280;41486;52.502;13.486;2024-02-21T04:01:28;101298.94;;;6.82;100.00
55610;BME280;41486;52.502;13.486;2024-02-21T04:03:56;101304.69;;;6.71;100.00
55610;BME280;41486;52.502;13.486;2024-02-21T04:06:24;101297.25;;;6.81;100.00
55610;BME280;41486;52.502;13.486;2024-02-21T04:08:54;101309.47;;;6.80;100.00
55610;BME280;41486;52.502;13.486;2024-02-21T04:11:22;101295.72;;;6.76;100.00
55610;BME280;41486;52.502;13.486;2024-02-21T04:13:50;101295.84;;;6.73;100.00
55610;BME280;41486;52.502;13.486;2024-02-21T04:16:18;101287.31;;;6.70;100.00
55610;BME280;41486;52.502;13.486;2024-02-21T04:18:46;101288.09;;;6.72;100.00
55610;BME280;41486;52.502;13.486;2024-02-21T04:21:17;101280.25;;;6.72;100.00
55610;BME280;41486;52.502;13.486;2024-02-21T04:23:45;101278.31;;;6.75;100.00
55610;BME280;41486;52.502;13.486;2024-02-21T04:26:14;101270.56;;;6.74;100.00
55610;BME280;41486;52.502;13.486;2024-02-21T04:28:45;101263.78;;;6.70;100.00
55610;BME280;41486;52.502;13.486;2024-02-21T04:31:13;101271.72;;;6.68;100.00
55610;BME280;41486;52.502;13.486;2024-02-21T04:33:42;101259.31;;;6.72;100.00
55610;BME280;41486;52.502;13.486;2024-02-21T04:36:10;101264.72;;;6.69;100.00
55610;BME280;41486;52.502;13.486;2024-02-21T04:38:38;101242.16;;;6.66;100.00
55610;BME280;41486;52.502;13.486;2024-02-21T04:41:06;101242.78;;;6.71;100.00
55610;BME280;41486;52.502;13.486;2024-02-21T04:43:36;101239.53;;;6.66;100.00
55610;BME280;41486;52.502;13.486;2024-02-21T04:46:04;101228.34;;;6.64;100.00
55610;BME280;41486;52.502;13.486;2024-02-21T04:48:32;101213.00;;;6.74;100.00
55610;BME280;41486;52.502;13.486;2024-02-21T04:51:03;101227.31;;;6.67;100.00
55610;BME280;41486;52.502;13.486;2024-02-21T04:53:35;101223.47;;;6.74;100.00
55610;BME280;41486;52.502;13.486;2024-02-21T04:56:04;101218.94;;;6.77;100.00
55610;BME280;41486;52.502;13.486;2024-02-21T04:58:32;101217.84;;;6.82;100.00
55610;BME280;41486;52.502;13.486;2024-02-21T05:01:02;101209.16;;;6.81;100.00
55610;BME280;41486;52.502;13.486;2024-02-21T05:03:30;101211.63;;;6.84;100.00
55610;BME280;41486;52.502;13.486;2024-02-21T05:05:59;101203.31;;;6.76;100.00
55610;BME280;41486;52.502;13.486;2024-02-21T05:08:27;101207.13;;;6.86;100.00
55610;BME280;41486;52.502;13.486;2024-02-21T05:10:55;101203.44;;;6.90;100.00
55610;BME280;41486;52.502;13.486;2024-02-21T05:13:23;101205.06;;;6.75;100.00
55610;BME280;41486;52.502;13.486;2024-02-21T05:15:51;101199.53;;;6.82;100.00
55610;BME280;41486;52.502;13.486;2024-02-21T05:18:20;101207.38;;;6.82;100.00
55610;BME280;41486;52.502;13.486;2024-02-21T05:20:48;101201.91;;;6.86;100.00
55610;BME280;41486;52.502;13.486;2024-02-21T05:23:18;101205.44;;;6.85;100.00
55610;BME280;41486;52.502;13.486;2024-02-21T05:25:46;101209.84;;;6.85;100.00
55610;BME280;41486;52.502;13.486;2024-02-21T05:28:14;101199.59;;;6.80;100.00
55610;BME280;41486;52.502;13.486;2024-02-21T05:30:42;101207.81;;;6.90;100.00
55610;BME280;41486;52.502;13.486;2024-02-21T05:33:10;101205.44;;;6.85;100.00
55610;BME280;41486;52.502;13.486;2024-02-21T05:35:41;101201.31;;;6.81;100.00
55610;BME280;41486;52.502;13.486;2024-02-21T05:38:09;101193.31;;;6.84;100.00
55610;BME280;41486;52.502;13.486;2024-02-21T05:40:38;101196.53;;;6.89;100.00
55610;BME280;41486;52.502;13.486;2024-02-21T05:43:07;101202.75;;;6.87;100.00
55610;BME280;41486;52.502;13.486;2024-02-21T05:45:35;101208.69;;;6.90;100.00
55610;BME280;41486;52.502;13.486;2024-02-21T05:48:04;101206.84;;;6.92;100.00
55610;BME280;41486;52.502;13.486;2024-02-21T05:50:32;101201.59;;;6.92;100.00
55610;BME280;41486;52.502;13.486;2024-02-21T05:53:01;101204.72;;;6.99;100.00
55610;BME280;41486;52.502;13.486;2024-02-21T05:55:30;101201.97;;;7.02;100.00
55610;BME280;41486;52.502;13.486;2024-02-21T05:57:58;101198.91;;;6.94;100.00
55610;BME280;41486;52.502;13.486;2024-02-21T06:00:26;101201.50;;;6.94;100.00
55610;BME280;41486;52.502;13.486;2024-02-21T06:02:54;101188.53;;;6.92;100.00
55610;BME280;41486;52.502;13.486;2024-02-21T06:05:22;101181.59;;;6.91;100.00
55610;BME280;41486;52.502;13.486;2024-02-21T06:07:50;101184.66;;;7.00;100.00
55610;BME280;41486;52.502;13.486;2024-02-21T06:10:19;101173.31;;;6.99;100.00
55610;BME280;41486;52.502;13.486;2024-02-21T06:12:47;101182.78;;;7.02;100.00
55610;BME280;41486;52.502;13.486;2024-02-21T06:15:15;101183.75;;;7.01;100.00
55610;BME280;41486;52.502;13.486;2024-02-21T06:17:43;101177.63;;;7.00;100.00
55610;BME280;41486;52.502;13.486;2024-02-21T06:20:12;101172.50;;;6.99;100.00
55610;BME280;41486;52.502;13.486;2024-02-21T06:22:43;101180.78;;;7.07;100.00
55610;BME280;41486;52.502;13.486;2024-02-21T06:25:11;101170.72;;;6.99;100.00
55610;BME280;41486;52.502;13.486;2024-02-21T06:27:41;101164.66;;;6.99;100.00
55610;BME280;41486;52.502;13.486;2024-02-21T06:30:10;101166.25;;;7.01;100.00
55610;BME280;41486;52.502;13.486;2024-02-21T06:32:38;101177.50;;;7.03;100.00
55610;BME280;41486;52.502;13.486;2024-02-21T06:35:06;101173.19;;;7.02;100.00
55610;BME280;41486;52.502;13.486;2024-02-21T06:37:34;101178.22;;;7.05;100.00
55610;BME280;41486;52.502;13.486;2024-02-21T06:40:03;101163.28;;;7.07;100.00
55610;BME280;41486;52.502;13.486;2024-02-21T06:42:32;101159.75;;;7.08;100.00
55610;BME280;41486;52.502;13.486;2024-02-21T06:45:01;101161.47;;;7.09;100.00
55610;BME280;41486;52.502;13.486;2024-02-21T06:47:29;101167.53;;;7.10;100.00
55610;BME280;41486;52.502;13.486;2024-02-21T06:49:57;101169.22;;;7.11;100.00
55610;BME280;41486;52.502;13.486;2024-02-21T06:52:25;101168.19;;;7.14;100.00
55610;BME280;41486;52.502;13.486;2024-02-21T06:54:53;101167.28;;;7.15;100.00
55610;BME280;41486;52.502;13.486;2024-02-21T06:57:21;101169.41;;;7.24;100.00
55610;BME280;41486;52.502;13.486;2024-02-21T06:59:49;101172.94;;;7.23;100.00
55610;BME280;41486;52.502;13.486;2024-02-21T07:02:18;101171.50;;;7.17;100.00
55610;BME280;41486;52.502;13.486;2024-02-21T07:04:46;101170.56;;;7.18;100.00
55610;BME280;41486;52.502;13.486;2024-02-21T07:07:14;101174.13;;;7.17;100.00
55610;BME280;41486;52.502;13.486;2024-02-21T07:09:43;101173.97;;;7.20;100.00
55610;BME280;41486;52.502;13.486;2024-02-21T07:12:11;101177.44;;;7.21;100.00
55610;BME280;41486;52.502;13.486;2024-02-21T07:14:39;101179.03;;;7.23;100.00
55610;BME280;41486;52.502;13.486;2024-02-21T07:17:09;101181.47;;;7.26;100.00
55610;BME280;41486;52.502;13.486;2024-02-21T07:19:44;101174.47;;;7.27;100.00
55610;BME280;41486;52.502;13.486;2024-02-21T07:22:12;101177.34;;;7.22;100.00
55610;BME280;41486;52.502;13.486;2024-02-21T07:24:40;101178.03;;;7.26;100.00
55610;BME280;41486;52.502;13.486;2024-02-21T07:27:10;101178.03;;;7.26;100.00
55610;BME280;41486;52.502;13.486;2024-02-21T07:29:38;101165.47;;;7.33;100.00
55610;BME280;41486;52.502;13.486;2024-02-21T07:32:06;101174.81;;;7.37;100.00
55610;BME280;41486;52.502;13.486;2024-02-21T07:34:34;101181.16;;;7.33;100.00
55610;BME280;41486;52.502;13.486;2024-02-21T07:37:04;101172.06;;;7.40;100.00
55610;BME280;41486;52.502;13.486;2024-02-21T07:39:35;101166.03;;;7.38;100.00
55610;BME280;41486;52.502;13.486;2024-02-21T07:42:04;101168.06;;;7.49;100.00
55610;BME280;41486;52.502;13.486;2024-02-21T07:44:32;101163.09;;;7.44;100.00
55610;BME280;41486;52.502;13.486;2024-02-21T07:47:01;101168.50;;;7.41;100.00
55610;BME280;41486;52.502;13.486;2024-02-21T07:49:29;101166.72;;;7.41;100.00
55610;BME280;41486;52.502;13.486;2024-02-21T07:52:00;101163.75;;;7.48;100.00
55610;BME280;41486;52.502;13.486;2024-02-21T07:54:31;101163.53;;;7.36;100.00
55610;BME280;41486;52.502;13.486;2024-02-21T07:56:59;101164.88;;;7.44;100.00
55610;BME280;41486;52.502;13.486;2024-02-21T07:59:27;101160.72;;;7.39;100.00
55610;BME280;41486;52.502;13.486;2024-02-21T08:01:56;101163.94;;;7.45;100.00
55610;BME280;41486;52.502;13.486;2024-02-21T08:04:24;101159.13;;;7.53;100.00
55610;BME280;41486;52.502;13.486;2024-02-21T08:06:53;101165.59;;;7.46;100.00
55610;BME280;41486;52.502;13.486;2024-02-21T08:09:22;101163.66;;;7.49;100.00
55610;BME280;41486;52.502;13.486;2024-02-21T08:11:52;101152.25;;;7.50;100.00
55610;BME280;41486;52.502;13.486;2024-02-21T08:14:21;101156.56;;;7.51;100.00
55610;BME280;41486;52.502;13.486;2024-02-21T08:16:51;101159.13;;;7.53;100.00
55610;BME280;41486;52.502;13.486;2024-02-21T08:19:22;101153.44;;;7.61;100.00
55610;BME280;41486;52.502;13.486;2024-02-21T08:21:50;101149.91;;;7.62;100.00
55610;BME280;41486;52.502;13.486;2024-02-21T08:24:18;101148.13;;;7.62;100.00
55610;BME280;41486;52.502;13.486;2024-02-21T08:26:46;101149.47;;;7.69;100.00
55610;BME280;41486;52.502;13.486;2024-02-21T08:29:15;101156.59;;;7.67;100.00
55610;BME280;41486;52.502;13.486;2024-02-21T08:31:49;101149.13;;;7.76;100.00
55610;BME280;41486;52.502;13.486;2024-02-21T08:34:17;101147.59;;;7.71;100.00
55610;BME280;41486;52.502;13.486;2024-02-21T08:36:47;101147.78;;;7.68;100.00
55610;BME280;41486;52.502;13.486;2024-02-21T08:39:16;101140.16;;;7.80;100.00
55610;BME280;41486;52.502;13.486;2024-02-21T08:41:44;101145.50;;;7.78;100.00
55610;BME280;41486;52.502;13.486;2024-02-21T08:44:25;101140.34;;;7.77;100.00
55610;BME280;41486;52.502;13.486;2024-02-21T08:46:57;101135.59;;;7.83;100.00
55610;BME280;41486;52.502;13.486;2024-02-21T08:49:25;101149.34;;;7.87;100.00
55610;BME280;41486;52.502;13.486;2024-02-21T08:52:00;101146.41;;;7.93;100.00
55610;BME280;41486;52.502;13.486;2024-02-21T08:54:29;101144.34;;;7.98;100.00
55610;BME280;41486;52.502;13.486;2024-02-21T08:56:58;101143.59;;;7.96;100.00
55610;BME280;41486;52.502;13.486;2024-02-21T08:59:27;101148.84;;;7.96;100.00
55610;BME280;41486;52.502;13.486;2024-02-21T09:01:58;101147.28;;;8.08;100.00
55610;BME280;41486;52.502;13.486;2024-02-21T09:04:28;101143.09;;;8.20;100.00
55610;BME280;41486;52.502;13.486;2024-02-21T09:06:57;101154.78;;;8.14;100.00
55610;BME280;41486;52.502;13.486;2024-02-21T09:09:26;101146.03;;;8.30;100.00
55610;BME280;41486;52.502;13.486;2024-02-21T09:11:55;101158.41;;;8.28;100.00
55610;BME280;41486;52.502;13.486;2024-02-21T09:14:24;101142.19;;;8.35;100.00
55610;BME280;41486;52.502;13.486;2024-02-21T09:16:53;101151.09;;;8.33;100.00
55610;BME280;41486;52.502;13.486;2024-02-21T09:19:24;101154.19;;;8.25;100.00
55610;BME280;41486;52.502;13.486;2024-02-21T09:21:53;101135.09;;;8.37;100.00
55610;BME280;41486;52.502;13.486;2024-02-21T09:24:21;101150.72;;;8.39;100.00
55610;BME280;41486;52.502;13.486;2024-02-21T09:26:49;101138.81;;;8.49;100.00
55610;BME280;41486;52.502;13.486;2024-02-21T09:29:17;101143.66;;;8.56;100.00
55610;BME280;41486;52.502;13.486;2024-02-21T09:31:48;101134.72;;;8.44;100.00
55610;BME280;41486;52.502;13.486;2024-02-21T09:34:18;101142.38;;;8.63;100.00
55610;BME280;41486;52.502;13.486;2024-02-21T09:36:49;101131.81;;;8.64;100.00
55610;BME280;41486;52.502;13.486;2024-02-21T09:39:17;101125.03;;;8.75;100.00
55610;BME280;41486;52.502;13.486;2024-02-21T09:41:50;101122.06;;;8.81;100.00
55610;BME280;41486;52.502;13.486;2024-02-21T09:44:22;101112.41;;;8.81;100.00
55610;BME280;41486;52.502;13.486;2024-02-21T09:46:54;101123.16;;;8.91;100.00
55610;BME280;41486;52.502;13.486;2024-02-21T09:49:30;101113.03;;;8.85;100.00
55610;BME280;41486;52.502;13.486;2024-02-21T09:52:01;101119.97;;;9.00;100.00
55610;BME280;41486;52.502;13.486;2024-02-21T09:54:30;101120.91;;;8.85;100.00
55610;BME280;41486;52.502;13.486;2024-02-21T09:56:59;101108.53;;;9.02;100.00
55610;BME280;41486;52.502;13.486;2024-02-21T09:59:28;101125.59;;;9.09;100.00
55610;BME280;41486;52.502;13.486;2024-02-21T10:01:56;101123.78;;;9.09;100.00
55610;BME280;41486;52.502;13.486;2024-02-21T10:04:29;101125.66;;;9.22;100.00
55610;BME280;41486;52.502;13.486;2024-02-21T10:07:00;101118.44;;;9.25;100.00
55610;BME280;41486;52.502;13.486;2024-02-21T10:09:28;101121.72;;;9.29;100.00
55610;BME280;41486;52.502;13.486;2024-02-21T10:12:07;101124.69;;;9.37;100.00
55610;BME280;41486;52.502;13.486;2024-02-21T10:14:36;101128.66;;;9.30;100.00
55610;BME280;41486;52.502;13.486;2024-02-21T10:17:04;101129.00;;;9.38;100.00
55610;BME280;41486;52.502;13.486;2024-02-21T10:19:38;101118.69;;;9.35;100.00
55610;BME280;41486;52.502;13.486;2024-02-21T10:22:08;101113.94;;;9.27;100.00
55610;BME280;41486;52.502;13.486;2024-02-21T10:24:37;101114.00;;;9.40;100.00
55610;BME280;41486;52.502;13.486;2024-02-21T10:27:09;101119.69;;;9.47;100.00
55610;BME280;41486;52.502;13.486;2024-02-21T10:29:39;101133.31;;;9.39;100.00
55610;BME280;41486;52.502;13.486;2024-02-21T10:32:09;101118.31;;;9.41;100.00
55610;BME280;41486;52.502;13.486;2024-02-21T10:34:41;101126.19;;;9.41;100.00
55610;BME280;41486;52.502;13.486;2024-02-21T10:37:11;101124.50;;;9.40;100.00
55610;BME280;41486;52.502;13.486;2024-02-21T10:39:40;101124.28;;;9.43;100.00
55610;BME280;41486;52.502;13.486;2024-02-21T10:42:11;101118.63;;;9.50;100.00
55610;BME280;41486;52.502;13.486;2024-02-21T10:44:40;101122.47;;;9.58;100.00
55610;BME280;41486;52.502;13.486;2024-02-21T10:47:10;101126.03;;;9.57;100.00
55610;BME280;41486;52.502;13.486;2024-02-21T10:49:41;101119.34;;;9.66;100.00
55610;BME280;41486;52.502;13.486;2024-02-21T10:52:14;101110.91;;;9.61;100.00
55610;BME280;41486;52.502;13.486;2024-02-21T10:54:51;101100.63;;;9.71;100.00
55610;BME280;41486;52.502;13.486;2024-02-21T10:57:21;101098.47;;;9.77;100.00
55610;BME280;41486;52.502;13.486;2024-02-21T10:59:50;101100.56;;;9.72;100.00
55610;BME280;41486;52.502;13.486;2024-02-21T11:02:19;101096.38;;;9.83;100.00
55610;BME280;41486;52.502;13.486;2024-02-21T11:04:49;101104.22;;;9.70;100.00
55610;BME280;41486;52.502;13.486;2024-02-21T11:07:19;101101.59;;;9.70;100.00
55610;BME280;41486;52.502;13.486;2024-02-21T11:09:51;101096.53;;;9.67;100.00
55610;BME280;41486;52.502;13.486;2024-02-21T11:12:20;101088.44;;;9.42;100.00
55610;BME280;41486;52.502;13.486;2024-02-21T11:14:52;101086.44;;;9.60;100.00
55610;BME280;41486;52.502;13.486;2024-02-21T11:17:20;101083.16;;;9.57;100.00
55610;BME280;41486;52.502;13.486;2024-02-21T11:19:54;101073.03;;;9.51;100.00
55610;BME280;41486;52.502;13.486;2024-02-21T11:22:22;101066.88;;;9.65;100.00
55610;BME280;41486;52.502;13.486;2024-02-21T11:24:51;101060.50;;;9.82;100.00
55610;BME280;41486;52.502;13.486;2024-02-21T11:27:23;101060.50;;;9.82;100.00
55610;BME280;41486;52.502;13.486;2024-02-21T11:29:56;101060.94;;;9.88;100.00
55610;BME280;41486;52.502;13.486;2024-02-21T11:32:25;101047.06;;;9.86;100.00
55610;BME280;41486;52.502;13.486;2024-02-21T11:34:56;101043.72;;;9.97;100.00
55610;BME280;41486;52.502;13.486;2024-02-21T11:37:32;101035.50;;;10.02;100.00
55610;BME280;41486;52.502;13.486;2024-02-21T11:40:01;101031.94;;;10.03;100.00
55610;BME280;41486;52.502;13.486;2024-02-21T11:42:30;101035.94;;;10.08;100.00
55610;BME280;41486;52.502;13.486;2024-02-21T11:44:59;101029.31;;;10.16;100.00
55610;BME280;41486;52.502;13.486;2024-02-21T11:47:32;101022.06;;;10.19;100.00
55610;BME280;41486;52.502;13.486;2024-02-21T11:50:02;101014.16;;;10.32;100.00
55610;BME280;41486;52.502;13.486;2024-02-21T11:52:30;101010.03;;;10.67;100.00
55610;BME280;41486;52.502;13.486;2024-02-21T11:54:58;101009.84;;;10.57;100.00
55610;BME280;41486;52.502;13.486;2024-02-21T11:57:32;101002.38;;;10.51;100.00
55610;BME280;41486;52.502;13.486;2024-02-21T12:00:12;101002.03;;;10.68;100.00
55610;BME280;41486;52.502;13.486;2024-02-21T12:02:40;100998.81;;;10.89;100.00
55610;BME280;41486;52.502;13.486;2024-02-21T12:05:13;101001.03;;;10.82;100.00
55610;BME280;41486;52.502;13.486;2024-02-21T12:07:42;100991.94;;;10.99;100.00
55610;BME280;41486;52.502;13.486;2024-02-21T12:10:11;100990.75;;;11.03;100.00
55610;BME280;41486;52.502;13.486;2024-02-21T12:12:40;100983.00;;;11.38;100.00
55610;BME280;41486;52.502;13.486;2024-02-21T12:15:08;100979.53;;;11.73;100.00
55610;BME280;41486;52.502;13.486;2024-02-21T12:17:36;100969.47;;;11.89;100.00
55610;BME280;41486;52.502;13.486;2024-02-21T12:20:06;100971.38;;;11.87;100.00
55610;BME280;41486;52.502;13.486;2024-02-21T12:22:38;100955.19;;;11.69;100.00
55610;BME280;41486;52.502;13.486;2024-02-21T12:25:15;100960.19;;;11.61;100.00
55610;BME280;41486;52.502;13.486;2024-02-21T12:27:44;100957.66;;;11.48;100.00
55610;BME280;41486;52.502;13.486;2024-02-21T12:30:13;100947.97;;;11.71;100.00
55610;BME280;41486;52.502;13.486;2024-02-21T12:32:41;100931.31;;;11.82;100.00
55610;BME280;41486;52.502;13.486;2024-02-21T12:35:09;100945.25;;;11.73;100.00
55610;BME280;41486;52.502;13.486;2024-02-21T12:37:39;100938.03;;;12.54;100.00
55610;BME280;41486;52.502;13.486;2024-02-21T12:40:08;100935.53;;;12.97;100.00
55610;BME280;41486;52.502;13.486;2024-02-21T12:42:40;100931.34;;;12.50;100.00
55610;BME280;41486;52.502;13.486;2024-02-21T12:45:08;100930.47;;;13.05;100.00
55610;BME280;41486;52.502;13.486;2024-02-21T12:47:37;100921.09;;;12.80;100.00